Skip Navigation Links
NOAA logo - Click to go to the NOAA homepage
NOAA's National Weather Service
Alaska Aviation Weather Unit
  NWS logo - Click to go to the NWS homepage
Left Navbar Graphic     15 AKDT = 23 GMT

   
NOAA is celebrating 200 years of science, service, and stewardship. Visit the NOAA 200th celebration Web site to learn more.
USA.gov is the U.S. Government's official Web portal to all Federal, state and local government Web resources and services.
Facebook
NWS on Facebook

Important Change Regarding the AAWU Web Presence

 

Over the last several months, the AAWU has been working to navigate its webpages to a nationally supported server. Security, as well as other needs, have necessitated the change.  We have been given an extension for the site changeover while we diligently work at addressing feedback received. As of July 14, 2017, aawu.arh.noaa.gov will be discontinued. The new AAWU web address is weather.gov/aawu. It is now live and will run in-parallel with the old site until it is discontinued on July 14, 2017. Please continue to send any feedback or questions regarding the new webpages to nws.ar.aawu.webauthors@noaa.gov.  Thank you for your patience during this time of transition.
AAWU Home :: Display TAF Add Bookmark
TAF PATA 192327Z 2000/2024  24006KT P6SM FEW080 SCT130
     FM200400 07004KT P6SM VCFG FEW006 SCT080
     FM201900 10006KT P6SM SCT080=

7987
FTAK31 PAFA 192327
TAFABT
TAF
METAR PATA 191752Z 32003KT 10SM OVC080 M09/M11 A2942 RMK AO2 SLP969
 I6000 T10941111 11083 21122 51004 PNO=

METAR PATA 191852Z 00000KT 10SM BKN080 M08/M11 A2943 RMK AO2 SLP971
     T10831106 PNO=

METAR PATA 191952Z 30003KT 10SM BKN075 M07/M10 A2943 RMK AO2 SLP972
     T10721100 PNO=

METAR PATA 192052Z 29004KT 10SM SCT075 M07/M10 A2943 RMK AO2 SLP972
 T10671100 51003 PNO=

METAR PATA 192152Z 24006KT 10SM FEW075 SCT100 M06/M09 A2943 RMK AO2
     SLP973 T10561089 PNO=

METAR PATA 192252Z 24006KT 10SM FEW075 SCT130 M06/M09 A2943 RMK AO2
 SLP971 T10561089 PNO=


NOAA's National Weather Service
Alaska Aviation Weather Unit
6930 Sand Lake Road
Anchorage, AK 99502-1845
Disclaimer
Credits
Glossary
Privacy Policy
About Us
Career Opportunities
Contact AAWU Internet Services Site last modified: April, 17th 2012